Time;durP1;ratioP1;P1;durP2;ratioP2;P2;SDS_P1;SDS_P2;PMS_P1;PMS_P2;Temp;Humidity;BMP_temperature;BMP_pressure;BME280_temperature;BME280_humidity;BME280_pressure;Samples;Min_cycle;Max_cycle;Signal;HPM_P1;HPM_P2
2022/11/23 00:01:47;;;;;;;31.45;13.02;;;8.80;99.90;;;;;;5074397;28;20028;-69
2022/11/23 00:04:13;;;;;;;32.17;12.65;;;8.80;99.90;;;;;;5071000;28;20012;-71
2022/11/23 00:06:39;;;;;;;31.13;14.52;;;8.80;99.90;;;;;;5075394;28;20021;-70
2022/11/23 00:09:05;;;;;;;27.92;11.23;;;8.90;99.90;;;;;;5074708;28;20012;-69
2022/11/23 00:11:33;;;;;;;36.53;14.70;;;8.90;99.90;;;;;;5070119;28;20361;-69
2022/11/23 00:13:59;;;;;;;37.55;15.18;;;8.90;99.90;;;;;;5068216;28;20032;-70
2022/11/23 00:16:27;;;;;;;28.42;12.07;;;8.90;99.90;;;;;;5074155;28;20374;-69
2022/11/23 00:18:57;;;;;;;30.90;14.40;;;8.90;99.90;;;;;;5069645;28;20475;-70
2022/11/23 00:21:24;;;;;;;29.52;13.80;;;9.00;99.90;;;;;;5057240;28;20384;-69
2022/11/23 00:23:50;;;;;;;36.38;14.52;;;9.00;99.90;;;;;;5075226;28;20024;-69
2022/11/23 00:26:16;;;;;;;33.42;14.73;;;9.00;99.90;;;;;;5075104;28;20517;-69
2022/11/23 00:28:42;;;;;;;32.05;13.90;;;9.00;99.90;;;;;;5074350;28;20024;-69
2022/11/23 00:31:10;;;;;;;33.30;13.27;;;9.00;99.90;;;;;;5074856;28;20388;-69
2022/11/23 00:33:36;;;;;;;32.88;13.00;;;9.00;99.90;;;;;;5070150;28;20033;-69
2022/11/23 00:36:10;;;;;;;32.60;15.05;;;9.00;99.90;;;;;;5074745;28;20024;-69
2022/11/23 00:38:36;;;;;;;35.53;12.88;;;9.00;99.90;;;;;;5074886;28;20031;-69
2022/11/23 00:41:04;;;;;;;28.75;11.63;;;9.00;99.90;;;;;;5073240;28;20364;-69
2022/11/23 00:43:30;;;;;;;29.35;12.55;;;9.00;99.90;;;;;;5074676;28;20533;-69
2022/11/23 00:46:12;;;;;;;25.80;11.38;;;9.00;99.90;;;;;;5062919;28;20060;-70
2022/11/23 00:48:38;;;;;;;28.27;12.43;;;9.00;99.90;;;;;;5069824;28;20017;-69
2022/11/23 00:51:06;;;;;;;37.58;13.18;;;9.00;99.90;;;;;;5072181;28;20028;-70
2022/11/23 00:53:32;;;;;;;33.50;13.90;;;9.10;99.90;;;;;;5074555;28;20066;-70
2022/11/23 00:55:57;;;;;;;32.53;11.88;;;9.10;99.90;;;;;;5074575;28;20107;-69
2022/11/23 00:58:24;;;;;;;32.25;14.43;;;9.10;99.90;;;;;;5058214;28;20021;-70
2022/11/23 01:00:49;;;;;;;30.98;12.55;;;9.10;99.90;;;;;;5057899;28;20024;-70
2022/11/23 01:03:16;;;;;;;26.00;11.57;;;9.10;99.90;;;;;;5066105;28;20074;-70
2022/11/23 01:05:44;;;;;;;27.08;12.77;;;9.10;99.90;;;;;;5072824;28;20020;-70
2022/11/23 01:08:09;;;;;;;26.73;12.07;;;9.10;99.90;;;;;;5070927;28;20040;-70
2022/11/23 01:10:35;;;;;;;34.75;13.15;;;9.10;99.90;;;;;;5072001;28;20029;-71
2022/11/23 01:13:01;;;;;;;32.25;12.02;;;9.10;99.90;;;;;;5074341;28;20028;-68
2022/11/23 01:15:26;;;;;;;29.85;13.18;;;9.10;99.90;;;;;;5065712;28;20075;-70
2022/11/23 01:17:52;;;;;;;22.20;9.20;;;9.10;99.90;;;;;;5065018;28;20056;-70
2022/11/23 01:20:18;;;;;;;31.38;13.63;;;9.10;99.90;;;;;;5064633;28;20038;-69
2022/11/23 01:22:44;;;;;;;30.92;12.43;;;9.10;99.90;;;;;;5073593;28;20029;-68
2022/11/23 01:25:10;;;;;;;29.35;13.25;;;9.00;99.90;;;;;;5073883;28;20025;-68
2022/11/23 01:27:36;;;;;;;31.52;13.40;;;9.00;99.90;;;;;;5062572;28;20483;-68
2022/11/23 01:30:02;;;;;;;31.10;15.20;;;9.00;99.90;;;;;;5067132;28;20025;-69
2022/11/23 01:32:27;;;;;;;25.75;10.88;;;9.00;99.90;;;;;;5057128;28;20048;-70
2022/11/23 01:34:53;;;;;;;28.77;13.75;;;9.00;99.90;;;;;;5068761;28;20497;-69
2022/11/23 01:37:18;;;;;;;26.90;13.15;;;9.10;99.90;;;;;;5072645;28;20096;-70
2022/11/23 01:39:44;;;;;;;30.67;13.95;;;9.10;99.90;;;;;;5072428;28;20154;-70
2022/11/23 01:42:09;;;;;;;28.70;12.82;;;9.10;99.90;;;;;;5073625;28;20058;-70
2022/11/23 01:44:38;;;;;;;21.77;8.50;;;9.10;99.90;;;;;;5072145;28;20099;-70
2022/11/23 01:47:08;;;;;;;24.40;10.88;;;9.10;99.90;;;;;;5059122;28;20095;-70
2022/11/23 01:49:44;;;;;;;23.45;10.63;;;9.00;99.90;;;;;;5070061;28;20013;-70
2022/11/23 01:52:14;;;;;;;28.38;11.25;;;9.00;99.90;;;;;;5073380;28;20036;-71
2022/11/23 01:54:47;;;;;;;31.40;13.32;;;9.00;99.90;;;;;;5064516;28;20037;-70
2022/11/23 01:57:21;;;;;;;22.85;10.00;;;9.00;99.90;;;;;;5066764;28;20013;-69
2022/11/23 01:59:47;;;;;;;23.00;9.23;;;9.00;99.90;;;;;;5064927;28;20060;-70
2022/11/23 02:02:15;;;;;;;32.83;13.00;;;9.00;99.90;;;;;;5057609;28;20479;-69
2022/11/23 02:04:45;;;;;;;31.80;12.05;;;9.00;99.90;;;;;;5067665;28;20020;-70
2022/11/23 02:07:11;;;;;;;23.88;10.65;;;9.00;99.90;;;;;;5068851;28;20081;-69
2022/11/23 02:09:37;;;;;;;29.95;12.05;;;9.00;99.90;;;;;;5072461;28;20028;-69
2022/11/23 02:12:09;;;;;;;23.38;10.57;;;9.00;99.90;;;;;;5073213;28;20025;-69
2022/11/23 02:14:35;;;;;;;26.00;12.65;;;9.00;99.90;;;;;;5071611;28;20035;-71
2022/11/23 02:17:01;;;;;;;25.73;11.48;;;9.00;99.90;;;;;;5067015;28;20028;-69
2022/11/23 02:19:47;;;;;;;23.45;9.70;;;9.00;99.90;;;;;;5070382;28;20024;-69
2022/11/23 02:22:40;;;;;;;27.08;12.00;;;9.00;99.90;;;;;;5072603;28;20111;-71
2022/11/23 02:25:18;;;;;;;29.80;11.93;;;9.00;99.90;;;;;;5061561;28;20484;-71
2022/11/23 02:27:44;;;;;;;29.55;11.82;;;9.00;99.90;;;;;;5072681;28;20058;-70
2022/11/23 02:30:10;;;;;;;24.38;11.15;;;9.00;99.90;;;;;;5071886;28;20069;-69
2022/11/23 02:32:37;;;;;;;25.35;11.45;;;9.00;99.90;;;;;;5056067;28;20036;-69
2022/11/23 02:35:03;;;;;;;27.10;12.63;;;9.00;99.90;;;;;;5068544;28;20453;-69
2022/11/23 02:37:28;;;;;;;24.75;10.57;;;9.00;99.90;;;;;;5061887;28;20154;-70
2022/11/23 02:39:56;;;;;;;30.67;13.05;;;9.10;99.90;;;;;;5072873;28;20051;-70
2022/11/23 02:42:22;;;;;;;27.83;12.48;;;9.10;99.90;;;;;;5067681;28;20456;-70
2022/11/23 02:45:16;;;;;;;23.27;10.38;;;9.10;99.90;;;;;;5064469;28;20044;-71
2022/11/23 02:47:41;;;;;;;30.92;12.95;;;9.10;99.90;;;;;;5071136;28;20104;-69
2022/11/23 02:50:07;;;;;;;25.17;11.20;;;9.10;99.90;;;;;;5066822;28;20128;-70
2022/11/23 02:52:33;;;;;;;22.15;9.90;;;9.10;99.90;;;;;;5067726;28;20072;-69
2022/11/23 02:54:58;;;;;;;27.48;10.45;;;9.10;99.90;;;;;;5072080;28;20078;-71
2022/11/23 02:57:24;;;;;;;21.20;8.98;;;9.10;99.90;;;;;;5071170;28;20463;-71
2022/11/23 02:59:49;;;;;;;27.58;11.20;;;9.10;99.90;;;;;;5071707;28;20047;-70
2022/11/23 03:02:15;;;;;;;25.58;11.40;;;9.10;99.90;;;;;;5071863;28;20066;-70
2022/11/23 03:04:40;;;;;;;24.52;11.63;;;9.10;99.90;;;;;;5068634;28;20097;-70
2022/11/23 03:07:06;;;;;;;26.77;10.32;;;9.10;99.90;;;;;;5071328;28;20470;-69
2022/11/23 03:09:32;;;;;;;26.85;10.50;;;9.10;99.90;;;;;;5071400;28;20282;-70
2022/11/23 03:11:57;;;;;;;23.60;8.90;;;9.10;99.90;;;;;;5071481;28;20044;-70
2022/11/23 03:14:24;;;;;;;24.75;10.82;;;9.10;99.90;;;;;;5073334;28;20121;-71
2022/11/23 03:16:50;;;;;;;23.42;10.50;;;9.10;99.90;;;;;;5074885;28;20418;-70
2022/11/23 03:19:15;;;;;;;25.27;10.15;;;9.10;99.90;;;;;;5072746;28;20109;-70
2022/11/23 03:21:41;;;;;;;22.20;9.48;;;9.20;99.90;;;;;;5075254;28;20043;-69
2022/11/23 03:24:06;;;;;;;24.77;9.18;;;9.20;99.90;;;;;;5075130;28;20062;-70
2022/11/23 03:26:32;;;;;;;19.58;6.93;;;9.10;99.90;;;;;;5075067;28;20109;-72
2022/11/23 03:28:58;;;;;;;20.58;7.53;;;9.20;99.90;;;;;;5073688;28;20020;-69
2022/11/23 03:31:24;;;;;;;21.33;9.02;;;9.10;99.90;;;;;;5074796;28;20056;-71
2022/11/23 03:33:49;;;;;;;24.02;9.60;;;9.10;99.90;;;;;;5072448;28;20041;-71
2022/11/23 03:36:15;;;;;;;23.45;8.55;;;9.10;99.90;;;;;;5074888;28;20048;-71
2022/11/23 03:38:40;;;;;;;21.83;8.85;;;9.10;99.90;;;;;;5074817;28;20044;-70
2022/11/23 03:41:06;;;;;;;19.60;8.70;;;9.10;99.90;;;;;;5074533;28;20026;-69
2022/11/23 03:43:31;;;;;;;23.55;10.55;;;9.00;99.90;;;;;;5074419;28;20100;-69
2022/11/23 03:45:57;;;;;;;24.70;9.30;;;9.10;99.90;;;;;;5074840;28;20048;-70
2022/11/23 03:48:22;;;;;;;18.30;8.07;;;9.10;99.90;;;;;;5074509;28;20032;-69
2022/11/23 03:50:48;;;;;;;23.63;10.25;;;9.10;99.90;;;;;;5071923;28;20020;-71
2022/11/23 03:53:13;;;;;;;23.92;9.50;;;9.10;99.90;;;;;;5074695;28;20106;-71
2022/11/23 03:55:39;;;;;;;22.83;9.85;;;9.10;99.90;;;;;;5074978;28;20036;-70
2022/11/23 03:58:05;;;;;;;23.35;10.30;;;9.10;99.90;;;;;;5074542;28;20099;-71
2022/11/23 04:00:31;;;;;;;28.92;12.60;;;9.10;99.90;;;;;;5075010;28;20028;-71
2022/11/23 04:02:57;;;;;;;32.70;15.65;;;9.10;99.90;;;;;;5072367;28;20217;-70
2022/11/23 04:05:23;;;;;;;29.25;13.93;;;9.10;99.90;;;;;;5073915;28;20136;-71
2022/11/23 04:07:49;;;;;;;23.63;10.30;;;9.10;99.90;;;;;;5074345;28;20021;-71
2022/11/23 04:10:16;;;;;;;27.83;11.55;;;9.10;99.90;;;;;;5074260;28;20047;-70
2022/11/23 04:12:42;;;;;;;22.95;11.38;;;9.10;99.90;;;;;;5073969;28;20036;-70
2022/11/23 04:15:08;;;;;;;32.15;11.35;;;9.10;99.90;;;;;;5074426;28;20017;-71
2022/11/23 04:17:34;;;;;;;24.90;10.93;;;9.00;99.90;;;;;;5072082;28;20028;-71
2022/11/23 04:19:59;;;;;;;21.48;10.27;;;9.00;99.90;;;;;;5072110;28;20036;-71
2022/11/23 04:22:25;;;;;;;29.70;13.32;;;9.00;99.90;;;;;;5074442;28;20353;-69
2022/11/23 04:24:50;;;;;;;25.60;11.88;;;9.00;99.90;;;;;;5073260;28;20388;-70
2022/11/23 04:27:16;;;;;;;31.08;13.48;;;9.00;99.90;;;;;;5074332;28;20344;-69
2022/11/23 04:29:41;;;;;;;25.95;11.77;;;9.00;99.90;;;;;;5073148;28;20333;-69
2022/11/23 04:32:07;;;;;;;23.05;11.68;;;9.00;99.90;;;;;;5073572;28;20114;-70
2022/11/23 04:34:32;;;;;;;29.38;13.02;;;9.00;99.90;;;;;;5072113;28;20418;-71
2022/11/23 04:36:58;;;;;;;24.52;11.65;;;9.00;99.90;;;;;;5074090;28;20017;-71
2022/11/23 04:39:23;;;;;;;27.35;12.77;;;9.00;99.90;;;;;;5073872;28;20037;-71
2022/11/23 04:41:49;;;;;;;17.85;9.00;;;9.00;99.90;;;;;;5073908;28;20051;-71
2022/11/23 04:44:14;;;;;;;26.52;13.45;;;9.00;99.90;;;;;;5073541;28;20021;-71
2022/11/23 04:46:40;;;;;;;21.83;10.10;;;9.00;99.90;;;;;;5073697;28;20021;-71
2022/11/23 04:49:07;;;;;;;23.77;11.40;;;9.00;99.90;;;;;;5070650;28;20062;-69
2022/11/23 04:51:32;;;;;;;27.88;12.02;;;9.00;99.90;;;;;;5071993;28;20504;-70
2022/11/23 04:53:58;;;;;;;26.77;13.77;;;9.00;99.90;;;;;;5072010;28;20090;-72
2022/11/23 04:56:23;;;;;;;53.10;14.75;;;9.00;99.90;;;;;;5072941;28;20104;-70
2022/11/23 04:58:49;;;;;;;19.42;9.20;;;9.00;99.90;;;;;;5073525;28;20033;-71
2022/11/23 05:01:14;;;;;;;30.00;14.68;;;9.00;99.90;;;;;;5073235;28;20024;-70
2022/11/23 05:03:40;;;;;;;24.55;10.98;;;9.00;99.90;;;;;;5070859;28;20035;-71
2022/11/23 05:06:06;;;;;;;26.02;11.00;;;9.00;99.90;;;;;;5073074;28;20017;-71
2022/11/23 05:08:32;;;;;;;27.35;12.50;;;9.00;99.90;;;;;;5067950;28;20073;-71
2022/11/23 05:10:57;;;;;;;25.48;12.48;;;9.10;99.90;;;;;;5071850;28;20031;-69
2022/11/23 05:13:23;;;;;;;24.33;13.20;;;9.10;99.90;;;;;;5072971;28;20376;-71
2022/11/23 05:15:49;;;;;;;21.92;11.35;;;9.10;99.90;;;;;;5072317;28;20326;-69
2022/11/23 05:18:14;;;;;;;26.98;13.60;;;9.10;99.90;;;;;;5069827;28;20033;-71
2022/11/23 05:20:40;;;;;;;25.20;12.00;;;9.10;99.90;;;;;;5072699;28;20059;-69
2022/11/23 05:23:07;;;;;;;20.25;9.50;;;9.10;99.90;;;;;;5072805;28;20028;-71
2022/11/23 05:25:33;;;;;;;21.83;10.75;;;9.10;99.90;;;;;;5072946;28;20021;-71
2022/11/23 05:27:58;;;;;;;25.92;10.48;;;9.10;99.90;;;;;;5072780;28;20027;-71
2022/11/23 05:30:24;;;;;;;24.73;11.15;;;9.20;99.90;;;;;;5072693;28;20033;-71
2022/11/23 05:32:49;;;;;;;20.30;9.43;;;9.10;99.90;;;;;;5072060;28;20051;-70
2022/11/23 05:35:15;;;;;;;29.00;12.02;;;9.20;99.90;;;;;;5069549;28;20023;-71
2022/11/23 05:37:41;;;;;;;24.27;9.18;;;9.20;99.90;;;;;;5071607;28;20478;-71
2022/11/23 05:40:07;;;;;;;17.95;8.15;;;9.20;99.90;;;;;;5072267;28;20048;-70
2022/11/23 05:42:34;;;;;;;21.58;9.57;;;9.20;99.90;;;;;;5072618;28;20024;-71
2022/11/23 05:44:59;;;;;;;18.00;7.97;;;9.20;99.90;;;;;;5071976;28;20111;-71
2022/11/23 05:47:25;;;;;;;25.58;10.55;;;9.20;99.90;;;;;;5072138;28;20431;-71
2022/11/23 05:49:50;;;;;;;22.60;10.25;;;9.20;99.90;;;;;;5070768;28;20508;-70
2022/11/23 05:52:16;;;;;;;22.25;9.73;;;9.20;99.90;;;;;;5071770;28;20021;-70
2022/11/23 05:54:42;;;;;;;20.75;8.85;;;9.20;99.90;;;;;;5072192;28;20044;-71
2022/11/23 05:57:08;;;;;;;26.05;10.88;;;9.30;99.90;;;;;;5072068;28;20522;-69
2022/11/23 05:59:34;;;;;;;22.15;10.27;;;9.30;99.90;;;;;;5072023;28;20043;-71
2022/11/23 06:01:59;;;;;;;24.70;11.18;;;9.30;99.90;;;;;;5070899;28;20032;-69
2022/11/23 06:04:25;;;;;;;25.30;10.52;;;9.30;99.90;;;;;;5069012;28;20028;-71
2022/11/23 06:06:53;;;;;;;22.83;9.15;;;9.30;99.90;;;;;;5070880;28;20020;-71
2022/11/23 06:09:19;;;;;;;22.02;8.95;;;9.30;99.90;;;;;;5072189;28;20023;-71
2022/11/23 06:11:47;;;;;;;20.80;9.27;;;9.30;99.90;;;;;;5071818;28;20032;-69
2022/11/23 06:14:12;;;;;;;18.02;8.93;;;9.30;99.90;;;;;;5068982;28;20028;-70
2022/11/23 06:16:38;;;;;;;18.52;8.80;;;9.30;99.90;;;;;;5070902;28;20024;-70
2022/11/23 06:19:13;;;;;;;22.30;8.25;;;9.30;99.90;;;;;;5069515;28;20042;-71
2022/11/23 06:21:38;;;;;;;21.80;9.25;;;9.30;99.90;;;;;;5071453;28;20024;-70
2022/11/23 06:24:04;;;;;;;23.15;9.55;;;9.20;99.90;;;;;;5069522;28;20364;-69
2022/11/23 06:26:30;;;;;;;16.98;6.90;;;9.20;99.90;;;;;;5072090;28;20341;-71
2022/11/23 06:28:56;;;;;;;16.85;6.85;;;9.20;99.90;;;;;;5070989;28;20032;-70
2022/11/23 06:31:22;;;;;;;18.92;6.97;;;9.10;99.90;;;;;;5072627;28;20035;-71
2022/11/23 06:33:48;;;;;;;16.00;7.20;;;9.10;99.90;;;;;;5071829;28;20056;-71
2022/11/23 06:36:14;;;;;;;18.83;7.35;;;9.10;99.90;;;;;;5072208;28;20421;-71
2022/11/23 06:38:40;;;;;;;17.45;8.00;;;9.10;99.90;;;;;;5071909;28;20032;-70
2022/11/23 06:41:06;;;;;;;11.38;4.60;;;9.00;99.90;;;;;;5071772;28;20032;-71
2022/11/23 06:43:31;;;;;;;17.73;6.90;;;9.00;99.90;;;;;;5071972;28;20051;-70
2022/11/23 06:45:57;;;;;;;21.10;9.95;;;9.00;99.90;;;;;;5072202;28;20047;-71
2022/11/23 06:48:23;;;;;;;25.73;10.27;;;9.00;99.90;;;;;;5074336;28;20024;-70
2022/11/23 06:50:48;;;;;;;10.93;5.55;;;8.90;99.90;;;;;;5076010;28;20078;-70
2022/11/23 06:53:14;;;;;;;16.23;6.57;;;8.90;99.90;;;;;;5076027;28;20474;-70
2022/11/23 06:55:40;;;;;;;22.02;9.45;;;8.90;99.90;;;;;;5076006;28;20025;-70
2022/11/23 06:58:05;;;;;;;22.00;8.15;;;8.90;99.90;;;;;;5076087;28;20388;-72
2022/11/23 07:00:32;;;;;;;20.40;8.63;;;8.80;99.90;;;;;;5075746;28;20105;-70
2022/11/23 07:02:59;;;;;;;21.27;8.13;;;8.80;99.90;;;;;;5076238;28;20032;-72
2022/11/23 07:05:25;;;;;;;21.38;9.10;;;8.80;99.90;;;;;;5073715;28;20065;-71
2022/11/23 07:07:51;;;;;;;24.48;10.07;;;8.80;99.90;;;;;;5072271;28;20029;-71
2022/11/23 07:10:17;;;;;;;25.38;11.13;;;8.80;99.90;;;;;;5075773;28;20082;-71
2022/11/23 07:12:43;;;;;;;21.83;8.68;;;8.80;99.90;;;;;;5075662;28;20029;-70
2022/11/23 07:15:09;;;;;;;19.50;10.18;;;8.80;99.90;;;;;;5075323;28;20020;-71
2022/11/23 07:17:39;;;;;;;19.60;8.45;;;8.80;99.90;;;;;;5074516;28;20023;-71
2022/11/23 07:20:07;;;;;;;24.10;9.57;;;8.80;99.90;;;;;;5075371;28;20460;-71
2022/11/23 07:22:32;;;;;;;30.13;18.05;;;8.80;99.90;;;;;;5075999;28;20056;-70
2022/11/23 07:24:58;;;;;;;46.83;39.75;;;8.80;99.90;;;;;;5074142;28;20394;-72
2022/11/23 07:27:27;;;;;;;28.73;17.58;;;8.80;99.90;;;;;;5075601;28;20017;-73
2022/11/23 07:29:52;;;;;;;130.68;118.50;;;8.90;99.90;;;;;;5074926;28;20480;-71
2022/11/23 07:32:18;;;;;;;61.03;52.45;;;8.90;99.90;;;;;;5074505;28;20082;-71
2022/11/23 07:34:44;;;;;;;118.70;108.10;;;8.90;99.90;;;;;;5075072;28;20036;-70
2022/11/23 07:37:09;;;;;;;75.35;67.05;;;8.90;99.90;;;;;;5075428;28;20082;-72
2022/11/23 07:39:35;;;;;;;103.00;92.13;;;8.90;99.90;;;;;;5074921;28;20123;-71
2022/11/23 07:42:00;;;;;;;137.77;120.57;;;8.90;99.90;;;;;;5073632;28;20021;-71
2022/11/23 07:44:26;;;;;;;41.58;30.35;;;9.00;99.90;;;;;;5073665;28;20020;-72
2022/11/23 07:46:52;;;;;;;56.45;47.05;;;9.00;99.90;;;;;;5075214;28;20025;-71
2022/11/23 07:49:18;;;;;;;42.70;38.22;;;9.00;99.90;;;;;;5074910;28;20557;-70
2022/11/23 07:51:43;;;;;;;13.02;6.15;;;9.00;99.90;;;;;;5074709;28;20026;-70
2022/11/23 07:54:09;;;;;;;36.50;28.67;;;9.10;99.90;;;;;;5072961;28;20093;-71
2022/11/23 07:56:34;;;;;;;45.00;40.15;;;9.10;99.90;;;;;;5075282;28;20436;-71
2022/11/23 07:59:00;;;;;;;25.23;12.75;;;9.10;99.90;;;;;;5066673;28;20441;-70
2022/11/23 08:01:25;;;;;;;16.83;8.13;;;9.10;99.90;;;;;;5072803;28;20372;-70
2022/11/23 08:03:51;;;;;;;14.27;4.40;;;9.00;99.90;;;;;;5072882;28;20345;-70
2022/11/23 08:06:17;;;;;;;13.43;3.92;;;9.10;99.90;;;;;;5074442;28;20037;-72
2022/11/23 08:08:43;;;;;;;14.75;4.03;;;9.00;99.90;;;;;;5073434;28;20024;-72
2022/11/23 08:11:09;;;;;;;14.63;3.20;;;9.10;99.90;;;;;;5073380;28;20368;-71
2022/11/23 08:13:36;;;;;;;14.50;3.65;;;9.10;99.90;;;;;;5072417;28;20038;-70
2022/11/23 08:16:02;;;;;;;15.10;3.92;;;9.10;99.90;;;;;;5074383;28;20021;-72
2022/11/23 08:18:28;;;;;;;17.20;3.25;;;9.10;99.90;;;;;;5074052;28;20104;-72
2022/11/23 08:20:54;;;;;;;14.82;4.80;;;9.10;99.90;;;;;;5074718;28;20416;-72
2022/11/23 08:23:20;;;;;;;20.20;3.92;;;9.10;99.90;;;;;;5074458;28;20035;-69
2022/11/23 08:25:46;;;;;;;12.82;3.55;;;9.20;99.90;;;;;;5074114;28;20111;-71
2022/11/23 08:28:11;;;;;;;10.20;3.08;;;9.20;99.90;;;;;;5073952;28;20078;-71
2022/11/23 08:30:37;;;;;;;14.63;3.40;;;9.20;99.90;;;;;;5074330;28;20024;-73
2022/11/23 08:33:07;;;;;;;16.60;4.50;;;9.20;99.90;;;;;;5074348;28;20055;-71
2022/11/23 08:35:37;;;;;;;18.70;3.63;;;9.30;99.90;;;;;;5074172;28;20107;-72
2022/11/23 08:38:04;;;;;;;11.80;3.20;;;9.30;99.90;;;;;;5073986;28;20440;-70
2022/11/23 08:40:29;;;;;;;21.95;4.00;;;9.20;99.90;;;;;;5073530;28;20452;-71
2022/11/23 08:42:55;;;;;;;18.35;3.40;;;9.30;99.90;;;;;;5079733;28;20085;-72
2022/11/23 08:45:21;;;;;;;19.80;3.92;;;9.30;99.90;;;;;;5082068;28;20036;-72
2022/11/23 08:47:46;;;;;;;12.73;3.10;;;9.30;99.90;;;;;;5076960;28;20020;-71
2022/11/23 08:50:13;;;;;;;11.60;3.35;;;9.30;99.90;;;;;;5073054;28;20035;-72
2022/11/23 08:52:38;;;;;;;10.80;2.97;;;9.30;99.90;;;;;;5078532;28;20154;-71
2022/11/23 08:55:04;;;;;;;14.50;3.58;;;9.30;99.90;;;;;;5091593;28;20427;-71
2022/11/23 08:57:30;;;;;;;9.60;2.65;;;9.30;99.90;;;;;;5079902;28;20012;-72
2022/11/23 08:59:55;;;;;;;17.98;3.70;;;9.30;99.90;;;;;;5087105;28;20023;-71
2022/11/23 09:02:21;;;;;;;10.60;2.60;;;9.30;99.90;;;;;;5089396;28;20097;-69
2022/11/23 09:04:47;;;;;;;17.45;4.50;;;9.30;99.90;;;;;;5090183;28;20039;-71
2022/11/23 09:07:12;;;;;;;14.68;3.40;;;9.30;99.90;;;;;;5084082;28;20419;-72
2022/11/23 09:09:38;;;;;;;10.75;2.80;;;9.30;99.90;;;;;;5089359;28;20448;-72
2022/11/23 09:12:04;;;;;;;13.85;2.88;;;9.30;99.90;;;;;;5081224;28;20060;-69
2022/11/23 09:14:30;;;;;;;16.83;3.67;;;9.40;99.90;;;;;;5090603;28;20032;-72
2022/11/23 09:16:56;;;;;;;16.52;3.30;;;9.40;99.90;;;;;;5094127;28;20019;-69
2022/11/23 09:19:21;;;;;;;18.58;4.53;;;9.60;99.90;;;;;;5094136;28;20359;-71
2022/11/23 09:21:47;;;;;;;13.70;2.67;;;9.70;99.90;;;;;;5094329;28;20031;-72
2022/11/23 09:24:13;;;;;;;18.83;3.58;;;9.70;99.90;;;;;;5081092;28;20043;-72
2022/11/23 09:26:39;;;;;;;22.50;3.35;;;9.80;99.90;;;;;;5073994;28;20069;-70
2022/11/23 09:29:07;;;;;;;26.63;8.50;;;9.90;99.90;;;;;;5073891;28;20437;-71
2022/11/23 09:31:33;;;;;;;17.00;4.38;;;10.00;99.90;;;;;;5073866;28;20049;-70
2022/11/23 09:33:58;;;;;;;12.40;2.65;;;10.10;99.90;;;;;;5074572;28;20452;-73
2022/11/23 09:36:24;;;;;;;11.65;3.47;;;10.40;99.90;;;;;;5073056;28;20021;-70
2022/11/23 09:38:50;;;;;;;13.02;3.08;;;10.80;99.90;;;;;;5073711;28;20028;-69
2022/11/23 09:41:50;;;;;;;14.30;2.80;;;11.10;99.90;;;;;;5074525;28;20029;-69
2022/11/23 09:44:37;;;;;;;18.17;3.65;;;11.70;99.90;;;;;;5065107;28;20032;-70
2022/11/23 09:47:30;;;;;;;10.55;2.50;;;12.20;99.90;;;;;;5073533;28;20027;-72
2022/11/23 09:50:10;;;;;;;17.48;3.55;;;12.50;99.90;;;;;;5053699;28;20103;-72
2022/11/23 09:52:40;;;;;;;8.80;2.15;;;12.70;99.90;;;;;;5073676;28;20028;-70
2022/11/23 09:55:16;;;;;;;14.65;2.80;;;13.00;99.90;;;;;;5072232;28;20021;-70
2022/11/23 09:57:45;;;;;;;15.75;2.75;;;13.30;99.90;;;;;;5064682;28;20020;-72
2022/11/23 10:00:22;;;;;;;11.05;2.88;;;13.70;99.90;;;;;;5070998;28;20344;-71
2022/11/23 10:02:48;;;;;;;13.98;2.65;;;14.20;99.90;;;;;;5073967;28;20025;-70
2022/11/23 10:05:21;;;;;;;12.80;1.85;;;14.30;99.90;;;;;;5074010;28;20016;-71
2022/11/23 10:08:09;;;;;;;15.07;2.85;;;14.40;99.90;;;;;;5073962;28;20032;-71
2022/11/23 10:10:48;;;;;;;14.15;2.83;;;14.50;99.90;;;;;;5058224;28;20119;-70
2022/11/23 10:13:14;;;;;;;11.60;2.65;;;14.40;99.90;;;;;;5053116;28;20029;-70
2022/11/23 10:15:58;;;;;;;7.93;2.00;;;14.60;99.90;;;;;;5071084;28;20029;-70
2022/11/23 10:18:41;;;;;;;13.48;2.38;;;14.60;99.90;;;;;;5071522;28;20025;-70
2022/11/23 10:21:13;;;;;;;12.00;2.55;;;14.90;99.90;;;;;;5073513;28;20017;-69
2022/11/23 10:23:53;;;;;;;14.93;2.53;;;14.90;99.90;;;;;;5073142;28;20020;-69
2022/11/23 10:26:24;;;;;;;14.45;2.35;;;15.00;99.90;;;;;;5073177;28;20025;-69
2022/11/23 10:28:50;;;;;;;14.25;2.55;;;14.90;99.90;;;;;;5069062;28;20024;-70
2022/11/23 10:31:19;;;;;;;15.10;3.03;;;14.90;99.90;;;;;;5054190;28;20143;-70
2022/11/23 10:34:12;;;;;;;14.48;2.80;;;14.90;99.90;;;;;;5064306;28;20039;-70
2022/11/23 10:36:38;;;;;;;15.73;3.03;;;15.00;99.90;;;;;;5065758;28;20055;-70
2022/11/23 10:39:25;;;;;;;9.15;1.63;;;15.00;99.90;;;;;;5066314;28;20024;-70
2022/11/23 10:41:52;;;;;;;13.88;2.63;;;15.00;99.90;;;;;;5073186;28;20028;-70
2022/11/23 10:44:31;;;;;;;14.15;2.67;;;15.00;99.90;;;;;;5069776;28;20012;-70
2022/11/23 10:46:58;;;;;;;13.75;2.30;;;14.90;99.90;;;;;;5073021;28;20021;-70
2022/11/23 10:49:28;;;;;;;8.32;2.60;;;14.60;99.90;;;;;;5066357;28;20029;-70
2022/11/23 10:52:02;;;;;;;13.52;2.95;;;14.20;99.90;;;;;;5053274;28;20024;-70
2022/11/23 10:54:51;;;;;;;13.48;2.47;;;13.80;99.90;;;;;;5062627;28;20036;-71
2022/11/23 10:57:32;;;;;;;11.45;2.70;;;13.30;99.90;;;;;;5070057;28;20052;-72
2022/11/23 11:00:06;;;;;;;8.07;1.90;;;13.00;99.90;;;;;;5073376;28;20020;-69
2022/11/23 11:02:46;;;;;;;8.18;2.50;;;12.70;99.90;;;;;;5073087;28;20020;-70
2022/11/23 11:05:27;;;;;;;10.10;1.83;;;12.00;99.90;;;;;;5073385;28;20155;-71
2022/11/23 11:07:55;;;;;;;15.45;3.42;;;11.60;99.90;;;;;;5060468;28;20053;-70
2022/11/23 11:10:42;;;;;;;7.82;2.10;;;11.30;99.90;;;;;;5073272;28;20027;-70
2022/11/23 11:13:51;;;;;;;10.75;2.63;;;11.10;99.90;;;;;;5073199;28;20036;-74
2022/11/23 11:16:35;;;;;;;10.90;2.60;;;10.80;99.90;;;;;;5055506;28;20037;-71
2022/11/23 11:19:24;;;;;;;17.23;3.70;;;10.70;99.90;;;;;;5054398;28;20048;-71
2022/11/23 11:21:50;;;;;;;17.42;3.22;;;10.50;99.90;;;;;;5058690;28;20040;-71
2022/11/23 11:24:41;;;;;;;13.00;2.88;;;10.50;99.90;;;;;;5066723;28;20450;-70
2022/11/23 11:27:20;;;;;;;12.50;2.88;;;10.40;99.90;;;;;;5066128;28;20637;-72
2022/11/23 11:29:49;;;;;;;5.75;2.10;;;10.50;99.90;;;;;;5054547;28;20029;-69
2022/11/23 11:32:51;;;;;;;8.70;2.20;;;10.50;99.90;;;;;;5064064;28;20041;-70
2022/11/23 11:35:27;;;;;;;12.68;2.50;;;10.70;99.90;;;;;;5055759;28;20028;-69
2022/11/23 11:38:17;;;;;;;9.90;2.92;;;10.90;99.90;;;;;;5075556;28;20033;-70
2022/11/23 11:40:47;;;;;;;14.25;3.40;;;11.00;99.90;;;;;;5070542;28;20036;-71
2022/11/23 11:43:19;;;;;;;8.77;2.40;;;11.10;99.90;;;;;;5070555;28;20047;-69
2022/11/23 11:45:47;;;;;;;10.10;2.42;;;11.20;99.90;;;;;;5075822;28;20028;-70
2022/11/23 11:48:24;;;;;;;13.95;2.92;;;11.30;99.90;;;;;;5065496;28;20028;-70
2022/11/23 11:51:12;;;;;;;12.80;2.75;;;11.40;99.90;;;;;;5069443;28;20024;-69
2022/11/23 11:53:59;;;;;;;9.10;2.10;;;11.70;99.90;;;;;;5061325;28;20056;-72
2022/11/23 11:56:30;;;;;;;14.20;3.03;;;12.20;99.90;;;;;;5067689;28;20033;-70
2022/11/23 11:59:19;;;;;;;13.35;3.10;;;12.70;99.90;;;;;;5069797;28;20346;-69
2022/11/23 12:02:06;;;;;;;9.52;2.55;;;12.80;99.90;;;;;;5063393;28;20048;-69
2022/11/23 12:04:42;;;;;;;8.85;2.60;;;12.80;99.90;;;;;;5066690;28;20047;-69
2022/11/23 12:07:17;;;;;;;12.60;2.92;;;12.90;99.90;;;;;;5063796;28;20028;-69
2022/11/23 12:09:49;;;;;;;8.82;2.33;;;12.70;99.90;;;;;;5056137;28;20407;-69
2022/11/23 12:12:15;;;;;;;;;;;12.50;99.90;;;;;;5056439;28;20021;-72
2022/11/23 12:14:42;;;;;;;10.80;2.85;;;12.40;99.90;;;;;;5055634;28;19912;-70
2022/11/23 12:17:23;;;;;;;9.85;2.38;;;12.30;99.90;;;;;;5055876;28;20150;-70
2022/11/23 12:20:05;;;;;;;4.00;1.60;;;12.40;99.90;;;;;;5056045;28;20013;-70
2022/11/23 12:22:46;;;;;;;11.23;2.20;;;12.50;99.90;;;;;;5055966;28;20526;-70
2022/11/23 12:25:19;;;;;;;12.07;2.55;;;12.30;99.90;;;;;;5055829;28;20025;-72
2022/11/23 12:27:59;;;;;;;15.50;2.90;;;12.30;99.90;;;;;;5055633;28;20478;-71
2022/11/23 12:30:52;;;;;;;14.57;3.00;;;12.30;99.90;;;;;;5055945;28;20017;-69
2022/11/23 12:33:55;;;;;;;10.82;3.08;;;12.20;99.90;;;;;;5055636;28;20041;-71
2022/11/23 12:36:40;;;;;;;10.50;2.55;;;12.00;99.90;;;;;;5060689;28;20028;-71
2022/11/23 12:39:49;;;;;;;11.18;3.13;;;11.90;99.90;;;;;;5056890;28;20063;-71
2022/11/23 12:42:47;;;;;;;11.00;2.47;;;11.70;99.90;;;;;;5054250;28;20449;-71
2022/11/23 12:45:12;;;;;;;13.27;2.80;;;11.50;99.90;;;;;;5050040;28;20040;-70
2022/11/23 12:48:10;;;;;;;9.73;2.55;;;11.40;99.90;;;;;;5055319;28;20029;-70
2022/11/23 12:50:49;;;;;;;11.93;2.88;;;11.30;99.90;;;;;;5043685;28;20040;-71
2022/11/23 12:53:25;;;;;;;7.15;2.83;;;11.30;99.90;;;;;;5065501;28;20350;-69